Time;durP1;ratioP1;P1;durP2;ratioP2;P2;SDS_P1;SDS_P2;PMS_P1;PMS_P2;Temp;Humidity;BMP_temperature;BMP_pressure;BME280_temperature;BME280_humidity;BME280_pressure;Samples;Min_cycle;Max_cycle;Signal;HPM_P1;HPM_P2
2023/10/09 00:01:27;;;;;;;14.13;6.20;;;16.10;98.10;;;;;;10538216;28;20201;-80
2023/10/09 00:06:49;;;;;;;11.97;5.13;;;16.10;98.30;;;;;;10541951;28;20318;-80
2023/10/09 00:12:16;;;;;;;18.33;6.10;;;16.10;98.30;;;;;;10537635;28;20776;-79
2023/10/09 00:17:38;;;;;;;15.33;6.07;;;16.10;98.70;;;;;;10542860;28;20223;-79
2023/10/09 00:23:00;;;;;;;16.23;5.50;;;16.10;98.50;;;;;;10543449;28;20239;-79
2023/10/09 00:28:25;;;;;;;15.73;6.60;;;16.10;98.30;;;;;;10541556;28;20220;-79
2023/10/09 00:33:47;;;;;;;19.03;5.10;;;16.00;98.20;;;;;;10542509;28;20224;-79
2023/10/09 00:39:18;;;;;;;10.07;5.07;;;16.00;98.40;;;;;;10554375;28;20207;-79
2023/10/09 00:44:42;;;;;;;15.33;6.60;;;16.00;98.30;;;;;;10540825;28;20827;-79
2023/10/09 00:50:11;;;;;;;12.23;6.30;;;15.90;98.40;;;;;;10540527;28;20231;-80
2023/10/09 00:55:44;;;;;;;10.57;5.07;;;15.90;98.40;;;;;;10508182;28;20217;-80
2023/10/09 01:01:15;;;;;;;16.23;5.50;;;15.90;98.50;;;;;;10526784;28;20230;-76
2023/10/09 01:06:43;;;;;;;14.43;6.60;;;15.90;98.70;;;;;;10538813;28;20228;-79
2023/10/09 01:12:06;;;;;;;15.73;6.00;;;15.90;98.80;;;;;;10499105;28;20225;-80
2023/10/09 01:17:36;;;;;;;15.40;6.30;;;15.90;98.90;;;;;;10539931;28;20234;-79
2023/10/09 01:23:03;;;;;;;12.53;5.10;;;15.90;98.60;;;;;;10539841;28;20243;-79
2023/10/09 01:28:26;;;;;;;12.30;6.37;;;15.90;98.80;;;;;;10538828;28;20257;-79
2023/10/09 01:33:48;;;;;;;18.10;6.20;;;15.90;98.70;;;;;;10540699;28;20220;-79
2023/10/09 01:39:23;;;;;;;17.73;6.20;;;15.90;98.90;;;;;;10540549;28;20515;-80
2023/10/09 01:44:48;;;;;;;9.97;5.70;;;16.00;98.80;;;;;;10540729;28;20224;-80
2023/10/09 01:50:20;;;;;;;6.10;5.43;;;16.00;98.90;;;;;;10540775;28;20305;-80
2023/10/09 01:55:45;;;;;;;17.23;5.27;;;16.10;99.00;;;;;;10544185;28;20244;-78
2023/10/09 02:01:09;;;;;;;12.57;4.80;;;16.10;98.80;;;;;;10546081;28;20211;-77
2023/10/09 02:06:32;;;;;;;14.50;5.30;;;16.10;98.80;;;;;;10551916;28;20295;-79
2023/10/09 02:11:55;;;;;;;11.70;5.10;;;16.10;98.80;;;;;;10551882;28;20654;-78
2023/10/09 02:17:18;;;;;;;15.90;6.10;;;16.20;99.10;;;;;;10543733;28;20204;-79
2023/10/09 02:22:41;;;;;;;14.43;5.33;;;16.20;99.10;;;;;;10539002;28;20261;-80
2023/10/09 02:28:05;;;;;;;18.47;6.63;;;16.20;99.20;;;;;;10501495;28;20212;-80
2023/10/09 02:33:28;;;;;;;18.33;6.30;;;16.20;99.10;;;;;;10496375;28;20320;-80
2023/10/09 02:38:53;;;;;;;15.03;5.20;;;16.20;99.20;;;;;;10545447;28;20193;-79
2023/10/09 02:44:24;;;;;;;13.27;6.17;;;16.20;99.00;;;;;;10535836;28;20245;-80
2023/10/09 02:49:48;;;;;;;12.77;5.70;;;16.20;99.00;;;;;;10536217;28;20212;-79
2023/10/09 02:55:25;;;;;;;20.00;6.20;;;16.20;99.10;;;;;;10538940;28;20235;-79
2023/10/09 03:00:49;;;;;;;14.87;5.43;;;16.20;99.30;;;;;;10543728;28;20197;-78
2023/10/09 03:06:26;;;;;;;15.83;5.90;;;16.20;99.20;;;;;;10536519;28;20220;-79
2023/10/09 03:11:53;;;;;;;17.30;5.33;;;16.20;99.30;;;;;;10535374;28;20479;-80
2023/10/09 03:17:16;;;;;;;10.00;5.07;;;16.20;99.30;;;;;;10519478;28;20196;-79
2023/10/09 03:22:39;;;;;;;11.87;4.90;;;16.30;99.30;;;;;;10533595;28;20222;-80
2023/10/09 03:28:01;;;;;;;14.30;6.10;;;16.30;99.30;;;;;;10534189;28;20575;-80
2023/10/09 03:33:25;;;;;;;11.83;5.37;;;16.30;99.30;;;;;;10538021;28;20253;-79
2023/10/09 03:38:48;;;;;;;12.87;5.63;;;16.30;99.30;;;;;;10533311;28;20263;-80
2023/10/09 03:44:13;;;;;;;10.13;5.23;;;16.30;99.10;;;;;;10516049;28;20228;-79
2023/10/09 03:49:39;;;;;;;10.10;4.97;;;16.30;99.10;;;;;;10499824;28;20633;-80
2023/10/09 03:55:10;;;;;;;11.73;5.47;;;16.40;99.00;;;;;;10503722;28;20221;-80
2023/10/09 04:00:44;;;;;;;11.83;5.90;;;16.40;99.00;;;;;;10544725;28;20707;-78
2023/10/09 04:06:10;;;;;;;8.70;4.53;;;16.40;99.30;;;;;;10542697;28;20301;-79
2023/10/09 04:11:33;;;;;;;8.80;4.93;;;16.40;99.20;;;;;;10542824;28;20307;-79
2023/10/09 04:17:04;;;;;;;11.00;5.60;;;16.40;99.20;;;;;;10539708;28;20205;-79
2023/10/09 04:22:31;;;;;;;12.30;4.30;;;16.30;99.20;;;;;;10540922;28;20215;-80
2023/10/09 04:28:08;;;;;;;16.60;5.30;;;16.30;99.00;;;;;;10525285;28;20220;-80
2023/10/09 04:33:42;;;;;;;16.47;5.20;;;16.30;99.10;;;;;;10542903;28;20228;-80
2023/10/09 04:39:35;;;;;;;18.93;4.77;;;16.20;99.10;;;;;;10542212;28;20196;-78
2023/10/09 04:45:19;;;;;;;13.23;5.43;;;16.20;99.00;;;;;;10537716;28;20228;-79
2023/10/09 04:51:17;;;;;;;9.50;5.20;;;16.20;98.90;;;;;;10500507;28;20255;-79
2023/10/09 04:56:33;;;;;;;8.77;4.80;;;16.20;99.00;;;;;;10538121;28;20204;-80
2023/10/09 05:02:04;;;;;;;13.23;4.77;;;16.20;99.10;;;;;;10533305;28;20283;-79
2023/10/09 05:07:50;;;;;;;13.53;5.50;;;16.10;99.10;;;;;;10538075;28;20201;-79
2023/10/09 05:13:13;;;;;;;9.53;4.30;;;16.20;99.00;;;;;;10531168;28;20278;-79
2023/10/09 05:18:37;;;;;;;13.10;4.70;;;16.20;99.00;;;;;;10539967;28;20708;-80
2023/10/09 05:24:16;;;;;;;12.43;5.83;;;16.10;99.00;;;;;;10538932;28;20261;-79
2023/10/09 05:29:59;;;;;;;11.50;5.53;;;16.20;99.00;;;;;;10537314;28;20311;-79
2023/10/09 05:35:29;;;;;;;10.73;5.37;;;16.10;99.10;;;;;;10539573;28;20224;-79
2023/10/09 05:41:04;;;;;;;9.73;5.17;;;16.10;99.10;;;;;;10536629;28;20197;-79
2023/10/09 05:46:35;;;;;;;16.30;5.23;;;16.10;99.10;;;;;;10538295;28;20224;-79
2023/10/09 05:52:32;;;;;;;14.50;5.53;;;16.10;99.20;;;;;;10498169;28;20299;-79
2023/10/09 06:03:38;;;;;;;15.43;5.53;;;16.10;99.30;;;;;;10535527;28;20211;-79
2023/10/09 06:09:28;;;;;;;9.20;4.20;;;16.20;99.30;;;;;;10532141;28;20307;-77
2023/10/09 06:14:57;;;;;;;12.30;6.00;;;16.20;99.30;;;;;;10516698;28;20366;-77
2023/10/09 06:21:09;;;;;;;8.90;4.47;;;16.30;99.10;;;;;;10531941;28;20191;-79
2023/10/09 06:26:26;;;;;;;11.43;4.53;;;16.40;98.90;;;;;;10538057;28;20250;-78
2023/10/09 06:38:05;;;;;;;13.87;5.93;;;16.50;98.80;;;;;;10473845;28;20246;-80
2023/10/09 06:43:27;;;;;;;23.57;5.10;;;16.60;98.80;;;;;;10538948;28;20212;-79
2023/10/09 06:48:56;;;;;;;8.63;4.30;;;16.60;98.90;;;;;;10539942;28;20626;-80
2023/10/09 06:54:20;;;;;;;10.10;4.80;;;16.70;98.90;;;;;;10538240;28;20221;-80
2023/10/09 07:05:21;;;;;;;13.53;4.93;;;16.90;98.60;;;;;;10547469;28;20239;-79
2023/10/09 07:11:02;;;;;;;9.47;4.97;;;17.00;98.50;;;;;;10539694;28;20227;-80
2023/10/09 07:16:28;;;;;;;16.30;5.97;;;17.10;98.70;;;;;;10537661;28;20235;-79
2023/10/09 07:21:54;;;;;;;9.70;5.20;;;17.20;99.00;;;;;;10542085;28;20650;-80
2023/10/09 07:27:20;;;;;;;14.63;4.30;;;17.30;99.40;;;;;;10510979;28;20685;-80
2023/10/09 07:32:43;;;;;;;12.80;4.80;;;17.40;99.10;;;;;;10515236;28;20227;-80
2023/10/09 07:38:08;;;;;;;20.13;4.90;;;17.60;99.50;;;;;;10547030;28;20211;-82
2023/10/09 07:43:38;;;;;;;10.13;5.20;;;17.60;99.50;;;;;;10517175;28;20224;-82
2023/10/09 07:49:08;;;;;;;14.87;4.97;;;17.70;99.50;;;;;;10545846;28;20200;-82
2023/10/09 07:54:32;;;;;;;9.00;4.43;;;17.80;99.40;;;;;;10544267;28;20254;-82
2023/10/09 08:00:00;;;;;;;13.30;5.80;;;17.80;99.80;;;;;;10542799;28;20197;-80
2023/10/09 08:05:33;;;;;;;12.57;4.70;;;18.00;99.90;;;;;;10544912;28;20248;-80
2023/10/09 08:16:39;;;;;;;10.00;4.57;;;18.30;99.90;;;;;;10542890;28;20220;-79
2023/10/09 08:22:42;;;;;;;12.60;4.77;;;18.40;99.90;;;;;;10542496;28;20569;-82
2023/10/09 08:33:56;;;;;;;8.07;4.43;;;18.70;99.90;;;;;;10542392;28;20227;-82
2023/10/09 08:39:25;;;;;;;14.93;4.90;;;18.90;99.90;;;;;;10540745;28;20196;-82
2023/10/09 08:44:49;;;;;;;7.70;4.70;;;19.00;99.90;;;;;;10526186;28;20227;-82
2023/10/09 08:50:14;;;;;;;11.83;4.40;;;19.10;99.90;;;;;;10544566;28;20605;-82
2023/10/09 08:55:38;;;;;;;14.40;4.90;;;19.20;99.70;;;;;;10541374;28;20667;-83
2023/10/09 09:01:00;;;;;;;10.97;4.03;;;19.20;99.90;;;;;;10544249;28;20200;-82
2023/10/09 09:06:24;;;;;;;9.50;4.33;;;19.20;99.90;;;;;;10540889;28;20219;-82
2023/10/09 09:11:49;;;;;;;13.17;5.40;;;19.30;99.90;;;;;;10541501;28;20234;-79
2023/10/09 09:17:30;;;;;;;16.73;5.27;;;19.40;99.90;;;;;;10522654;28;20208;-80
2023/10/09 09:22:56;;;;;;;19.27;5.00;;;19.50;99.90;;;;;;10548183;28;20220;-79
2023/10/09 09:28:21;;;;;;;11.47;5.43;;;19.60;99.90;;;;;;10555257;28;20193;-79
2023/10/09 09:33:44;;;;;;;17.53;5.60;;;19.70;99.90;;;;;;10549960;28;20220;-80
2023/10/09 09:39:19;;;;;;;16.77;6.10;;;19.80;99.90;;;;;;10548727;28;20256;-80
2023/10/09 09:44:44;;;;;;;16.10;5.60;;;19.90;99.80;;;;;;10537174;28;20241;-80
2023/10/09 09:50:13;;;;;;;9.83;5.40;;;20.00;99.30;;;;;;10534239;28;20220;-80
2023/10/09 09:55:42;;;;;;;19.10;5.63;;;20.10;99.30;;;;;;10532604;28;20300;-80
2023/10/09 10:01:15;;;;;;;16.53;6.20;;;20.20;99.80;;;;;;10528115;28;20735;-80
2023/10/09 10:06:39;;;;;;;8.97;5.30;;;20.20;99.90;;;;;;10536324;28;20259;-80
2023/10/09 10:12:09;;;;;;;18.10;5.20;;;20.20;99.80;;;;;;10535561;28;20208;-80
2023/10/09 10:17:36;;;;;;;9.83;5.53;;;20.30;99.90;;;;;;10532268;28;20192;-77
2023/10/09 10:23:25;;;;;;;11.33;5.30;;;20.40;99.90;;;;;;10522277;28;20216;-80
2023/10/09 10:29:22;;;;;;;18.00;4.90;;;20.40;99.10;;;;;;10517915;28;20313;-80
2023/10/09 10:34:57;;;;;;;12.87;4.30;;;20.50;98.70;;;;;;10534535;28;20220;-80
2023/10/09 10:45:52;;;;;;;15.03;4.73;;;20.60;97.90;;;;;;10499009;28;20522;-80
2023/10/09 10:51:15;;;;;;;18.63;6.20;;;20.60;98.40;;;;;;10445469;28;20617;-82
2023/10/09 10:56:39;;;;;;;15.10;4.73;;;20.60;98.10;;;;;;10451024;28;20217;-81
2023/10/09 11:02:22;;;;;;;19.33;5.20;;;20.50;97.80;;;;;;10436674;28;20221;-82
2023/10/09 11:07:44;;;;;;;11.93;5.00;;;20.60;98.30;;;;;;10452322;28;20660;-82
2023/10/09 11:18:47;;;;;;;8.13;3.80;;;20.50;99.20;;;;;;10460980;28;20202;-82
2023/10/09 11:24:25;;;;;;;12.77;4.73;;;20.60;98.90;;;;;;10434453;28;20737;-79
2023/10/09 11:29:54;;;;;;;13.60;4.70;;;20.70;98.70;;;;;;10448744;28;20195;-79
2023/10/09 11:35:26;;;;;;;7.03;3.30;;;20.90;98.70;;;;;;10449939;28;20218;-78
2023/10/09 11:41:05;;;;;;;18.20;4.90;;;20.90;98.40;;;;;;10464030;28;20202;-80
2023/10/09 11:46:49;;;;;;;11.80;4.87;;;20.80;98.10;;;;;;10456391;28;20726;-81
2023/10/09 11:57:52;;;;;;;8.90;3.83;;;20.80;98.10;;;;;;10418549;28;20214;-81
2023/10/09 12:03:14;;;;;;;10.23;4.37;;;20.80;98.50;;;;;;10418995;28;20229;-81
2023/10/09 12:08:40;;;;;;;14.20;4.60;;;20.70;99.50;;;;;;10428662;28;20213;-81
2023/10/09 12:14:04;;;;;;;6.57;3.83;;;20.80;99.60;;;;;;10426527;28;20292;-80
2023/10/09 12:19:28;;;;;;;10.27;4.47;;;20.90;99.60;;;;;;10401683;28;20679;-81
2023/10/09 12:24:52;;;;;;;13.40;3.27;;;21.00;99.00;;;;;;10407691;28;20230;-81
2023/10/09 12:30:15;;;;;;;8.63;3.20;;;21.30;98.60;;;;;;10416722;28;20726;-79
2023/10/09 12:35:38;;;;;;;6.97;3.70;;;21.40;98.90;;;;;;10420745;28;20310;-79
2023/10/09 12:41:18;;;;;;;9.83;5.17;;;21.40;99.10;;;;;;10409696;28;20203;-80
2023/10/09 12:46:40;;;;;;;8.17;4.60;;;21.30;99.10;;;;;;10399635;28;20313;-79
2023/10/09 12:52:02;;;;;;;9.60;4.13;;;21.20;98.60;;;;;;10410070;28;20677;-81
2023/10/09 12:57:26;;;;;;;8.07;4.83;;;21.10;98.60;;;;;;10419380;28;20233;-82
2023/10/09 13:02:48;;;;;;;13.83;4.20;;;21.10;98.10;;;;;;10411473;28;20234;-82
2023/10/09 13:08:11;;;;;;;11.33;4.90;;;21.00;97.10;;;;;;10418251;28;20203;-81
2023/10/09 13:13:41;;;;;;;16.53;6.60;;;20.90;97.20;;;;;;10428967;28;20249;-80
2023/10/09 13:19:09;;;;;;;10.30;5.27;;;20.70;97.60;;;;;;10394301;28;20207;-80
2023/10/09 13:24:31;;;;;;;21.77;7.00;;;20.50;97.80;;;;;;10408399;28;20215;-80
2023/10/09 13:30:05;;;;;;;9.27;5.80;;;20.40;96.80;;;;;;10415434;28;20187;-80
2023/10/09 13:35:37;;;;;;;11.77;5.57;;;20.20;97.40;;;;;;10429907;28;20226;-80
2023/10/09 13:41:01;;;;;;;8.23;5.93;;;20.20;97.60;;;;;;10412139;28;20198;-80
2023/10/09 13:46:25;;;;;;;11.23;6.57;;;20.10;95.40;;;;;;10413735;28;20250;-80
2023/10/09 13:51:47;;;;;;;8.97;6.20;;;20.00;93.90;;;;;;10414992;28;20195;-80
2023/10/09 13:57:10;;;;;;;10.93;6.40;;;20.10;92.80;;;;;;10415422;28;20220;-80
2023/10/09 14:02:34;;;;;;;7.50;5.80;;;20.10;91.20;;;;;;10415491;28;20226;-80
2023/10/09 14:08:00;;;;;;;12.60;6.33;;;20.20;93.20;;;;;;10416279;28;20286;-81
2023/10/09 14:13:28;;;;;;;8.73;5.20;;;20.20;93.10;;;;;;10422693;28;20297;-80
2023/10/09 14:18:53;;;;;;;12.07;5.93;;;20.30;91.50;;;;;;10412884;28;20296;-81
2023/10/09 14:24:16;;;;;;;9.03;5.50;;;20.40;92.50;;;;;;10408098;28;20253;-81
2023/10/09 14:29:38;;;;;;;10.53;5.20;;;20.40;93.40;;;;;;10410735;28;20708;-81
2023/10/09 14:35:01;;;;;;;8.30;5.10;;;20.30;90.40;;;;;;10396919;28;20218;-81
2023/10/09 14:40:29;;;;;;;10.23;5.90;;;20.40;91.00;;;;;;10373134;28;20598;-81
2023/10/09 14:45:53;;;;;;;8.53;5.80;;;20.40;90.60;;;;;;10396183;28;20309;-80
2023/10/09 14:51:17;;;;;;;10.00;5.47;;;20.50;91.30;;;;;;10403491;28;20203;-80
2023/10/09 14:56:40;;;;;;;11.80;6.43;;;20.50;90.90;;;;;;10412566;28;20223;-81
2023/10/09 15:02:05;;;;;;;6.83;4.37;;;20.50;92.20;;;;;;10418171;28;20260;-81
2023/10/09 15:07:29;;;;;;;10.73;6.00;;;20.40;92.50;;;;;;10419880;28;20277;-81
2023/10/09 15:12:51;;;;;;;9.93;5.70;;;20.50;91.30;;;;;;10417369;28;20225;-81
2023/10/09 15:18:13;;;;;;;7.50;5.60;;;20.60;90.40;;;;;;10435100;28;20386;-81
2023/10/09 15:23:37;;;;;;;10.23;5.23;;;20.80;89.00;;;;;;10412731;28;20227;-81
2023/10/09 15:29:03;;;;;;;9.10;5.47;;;20.90;90.60;;;;;;10415213;28;20713;-81
2023/10/09 15:34:27;;;;;;;10.47;5.77;;;20.90;90.70;;;;;;10427614;28;20210;-81
2023/10/09 15:39:51;;;;;;;11.20;6.37;;;20.80;90.60;;;;;;10422759;28;20738;-80
2023/10/09 15:45:13;;;;;;;8.10;5.77;;;20.80;90.30;;;;;;10444373;28;20885;-81
2023/10/09 15:50:35;;;;;;;9.23;5.73;;;20.80;90.70;;;;;;10424501;28;20296;-80
2023/10/09 15:56:02;;;;;;;7.63;6.00;;;20.80;91.20;;;;;;10410184;28;20214;-81
2023/10/09 16:01:25;;;;;;;10.33;5.77;;;20.60;91.60;;;;;;10412789;28;20195;-80
2023/10/09 16:06:47;;;;;;;7.37;5.80;;;20.50;91.70;;;;;;10378447;28;20222;-82
2023/10/09 16:12:12;;;;;;;7.07;5.53;;;20.40;91.90;;;;;;10385809;28;20848;-81
2023/10/09 16:17:35;;;;;;;9.80;6.13;;;20.30;91.80;;;;;;10416866;28;20230;-81
2023/10/09 16:23:04;;;;;;;11.20;5.40;;;20.30;91.10;;;;;;10420524;28;20225;-82
2023/10/09 16:28:27;;;;;;;9.13;5.60;;;20.30;90.70;;;;;;10420059;28;20335;-81
2023/10/09 16:33:50;;;;;;;10.33;6.40;;;20.20;91.10;;;;;;10416692;28;20291;-82
2023/10/09 16:39:22;;;;;;;7.87;6.53;;;20.20;90.50;;;;;;10408829;28;20202;-81
2023/10/09 16:44:46;;;;;;;9.70;6.90;;;20.10;90.20;;;;;;10419786;28;20237;-81
2023/10/09 16:50:11;;;;;;;12.40;5.70;;;20.10;90.40;;;;;;10430546;28;20275;-81
2023/10/09 16:55:33;;;;;;;9.50;5.97;;;20.00;90.70;;;;;;10416077;28;20229;-81
2023/10/09 17:00:58;;;;;;;11.77;6.40;;;19.90;90.70;;;;;;10427502;28;20207;-80
2023/10/09 17:06:23;;;;;;;9.00;5.63;;;19.80;91.20;;;;;;10430855;28;20221;-81
2023/10/09 17:11:51;;;;;;;8.70;5.83;;;19.70;91.80;;;;;;10444576;28;20226;-80
2023/10/09 17:17:15;;;;;;;9.87;5.40;;;19.60;92.00;;;;;;10414010;28;20204;-80
2023/10/09 17:22:38;;;;;;;13.47;7.00;;;19.40;92.30;;;;;;10416336;28;20223;-80
2023/10/09 17:28:00;;;;;;;10.90;7.50;;;19.40;92.20;;;;;;10402474;28;20207;-80
2023/10/09 17:33:24;;;;;;;12.40;6.33;;;19.30;92.30;;;;;;10377208;28;20718;-80
2023/10/09 17:38:49;;;;;;;18.13;7.17;;;19.20;93.00;;;;;;10414197;28;20687;-79
2023/10/09 17:44:11;;;;;;;15.43;8.37;;;19.10;93.30;;;;;;10425082;28;20226;-79
2023/10/09 17:49:36;;;;;;;18.73;7.57;;;19.10;93.70;;;;;;10436608;28;20664;-79
2023/10/09 17:55:00;;;;;;;14.70;6.33;;;19.00;93.80;;;;;;10412408;28;20219;-79
2023/10/09 18:00:23;;;;;;;14.13;5.90;;;18.90;94.00;;;;;;10412135;28;20214;-79
2023/10/09 18:05:47;;;;;;;13.73;5.80;;;18.90;94.00;;;;;;10397309;28;20309;-78
2023/10/09 18:11:09;;;;;;;11.53;5.23;;;18.80;94.40;;;;;;10411852;28;20228;-78
2023/10/09 18:16:32;;;;;;;12.73;5.83;;;18.80;94.50;;;;;;10426360;28;20226;-78
2023/10/09 18:21:56;;;;;;;12.73;5.90;;;18.70;94.50;;;;;;10408854;28;20234;-77
2023/10/09 18:27:19;;;;;;;13.63;6.40;;;18.70;94.30;;;;;;10414483;28;20202;-78
2023/10/09 18:32:41;;;;;;;15.43;6.33;;;18.70;94.30;;;;;;10405149;28;20246;-78
2023/10/09 18:38:05;;;;;;;9.03;5.37;;;18.60;94.30;;;;;;10410035;28;20198;-78
2023/10/09 18:43:28;;;;;;;11.43;6.50;;;18.60;94.40;;;;;;10405801;28;20237;-79
2023/10/09 18:48:51;;;;;;;8.43;5.37;;;18.60;94.40;;;;;;10410763;28;20276;-79
2023/10/09 18:54:14;;;;;;;8.60;5.50;;;18.60;94.40;;;;;;10401867;28;20289;-79
2023/10/09 18:59:42;;;;;;;14.87;6.23;;;18.60;94.40;;;;;;10403693;28;20194;-78
2023/10/09 19:05:07;;;;;;;9.13;5.57;;;18.70;94.40;;;;;;10404517;28;20222;-79
2023/10/09 19:10:41;;;;;;;12.00;5.93;;;18.70;94.40;;;;;;10411212;28;20257;-78
2023/10/09 19:16:05;;;;;;;9.43;5.83;;;18.70;94.70;;;;;;10422451;28;20210;-77
2023/10/09 19:21:29;;;;;;;12.40;5.77;;;18.80;94.20;;;;;;10400267;28;20340;-79
2023/10/09 19:26:52;;;;;;;13.23;4.57;;;18.80;94.20;;;;;;10428609;28;20278;-78
2023/10/09 19:32:17;;;;;;;11.73;5.23;;;18.70;94.10;;;;;;10408409;28;20226;-78
2023/10/09 19:37:42;;;;;;;11.07;5.27;;;18.80;94.50;;;;;;10404947;28;20250;-78
2023/10/09 19:43:05;;;;;;;15.07;5.80;;;18.80;94.90;;;;;;10416535;28;20233;-77
2023/10/09 19:48:27;;;;;;;13.97;5.83;;;18.80;94.70;;;;;;10406756;28;20343;-78
2023/10/09 19:53:52;;;;;;;6.53;4.60;;;18.80;95.00;;;;;;10407358;28;20621;-80
2023/10/09 19:59:15;;;;;;;13.87;5.07;;;18.80;95.30;;;;;;10407866;28;20793;-79
2023/10/09 20:04:38;;;;;;;9.90;4.97;;;18.80;95.40;;;;;;10419900;28;20237;-79
2023/10/09 20:10:01;;;;;;;9.87;4.90;;;18.80;95.50;;;;;;10415247;28;20598;-79
2023/10/09 20:15:25;;;;;;;12.23;6.20;;;18.80;95.70;;;;;;10405674;28;20218;-79
2023/10/09 20:20:47;;;;;;;11.10;5.67;;;18.80;95.50;;;;;;10424343;28;20200;-79
2023/10/09 20:26:14;;;;;;;13.77;4.57;;;18.80;95.40;;;;;;10409904;28;20229;-79
2023/10/09 20:31:38;;;;;;;12.53;5.40;;;18.80;95.60;;;;;;10408800;28;20202;-79
2023/10/09 20:37:02;;;;;;;12.70;6.10;;;18.80;95.60;;;;;;10412537;28;20195;-80
2023/10/09 20:42:25;;;;;;;8.83;4.40;;;18.80;95.70;;;;;;10410790;28;20321;-78
2023/10/09 20:47:54;;;;;;;7.63;4.60;;;18.70;95.70;;;;;;10411646;28;20213;-80
2023/10/09 20:53:16;;;;;;;12.83;4.77;;;18.70;95.90;;;;;;10405727;28;20344;-80
2023/10/09 20:58:40;;;;;;;6.93;3.73;;;18.70;95.80;;;;;;10433003;28;20209;-79
2023/10/09 21:04:06;;;;;;;11.43;4.87;;;18.70;96.20;;;;;;10413275;28;20222;-80
2023/10/09 21:09:28;;;;;;;10.90;5.00;;;18.60;96.00;;;;;;10400465;28;20659;-80
2023/10/09 21:14:51;;;;;;;8.27;4.43;;;18.60;96.10;;;;;;10432375;28;20222;-80
2023/10/09 21:20:16;;;;;;;7.23;4.43;;;18.50;96.20;;;;;;10419640;28;20214;-80
2023/10/09 21:25:39;;;;;;;10.07;5.33;;;18.50;96.40;;;;;;10418196;28;20223;-79
2023/10/09 21:31:03;;;;;;;9.70;5.57;;;18.40;96.40;;;;;;10420547;28;20241;-79
2023/10/09 21:36:27;;;;;;;6.87;3.73;;;18.40;96.60;;;;;;10425547;28;20216;-79
2023/10/09 21:41:49;;;;;;;14.57;4.40;;;18.30;96.80;;;;;;10421665;28;20786;-80
2023/10/09 21:47:11;;;;;;;10.90;4.70;;;18.20;96.70;;;;;;10408903;28;20234;-78
2023/10/09 21:52:34;;;;;;;9.43;4.87;;;18.20;97.10;;;;;;10408725;28;20227;-80
2023/10/09 21:57:57;;;;;;;9.33;4.77;;;18.20;97.00;;;;;;10408602;28;20206;-80
2023/10/09 22:03:19;;;;;;;7.47;4.33;;;18.10;97.10;;;;;;10408312;28;20226;-79
2023/10/09 22:08:44;;;;;;;13.13;4.37;;;18.00;97.10;;;;;;10396044;28;20203;-79
2023/10/09 22:14:06;;;;;;;9.60;4.47;;;18.00;97.20;;;;;;10405405;28;20683;-79
2023/10/09 22:19:35;;;;;;;7.43;3.93;;;17.90;97.20;;;;;;10413606;28;20225;-79
2023/10/09 22:25:05;;;;;;;10.97;4.57;;;17.90;97.50;;;;;;10412812;28;20254;-79
2023/10/09 22:30:33;;;;;;;8.13;4.33;;;17.90;97.70;;;;;;10414297;28;20214;-79
2023/10/09 22:36:00;;;;;;;10.50;4.40;;;17.80;97.80;;;;;;10411220;28;20236;-79
2023/10/09 22:41:27;;;;;;;7.00;4.33;;;17.80;97.90;;;;;;10413026;28;20206;-79
2023/10/09 22:46:51;;;;;;;8.90;5.27;;;17.70;98.00;;;;;;10413006;28;20218;-79
2023/10/09 22:52:14;;;;;;;10.33;4.60;;;17.70;98.00;;;;;;10412716;28;20209;-79
2023/10/09 22:57:38;;;;;;;16.30;5.90;;;17.60;98.00;;;;;;10419384;28;20280;-79
2023/10/09 23:03:00;;;;;;;7.60;4.37;;;17.50;97.80;;;;;;10397252;28;20227;-79
2023/10/09 23:08:23;;;;;;;6.47;3.60;;;17.50;98.20;;;;;;10415052;28;20213;-79
2023/10/09 23:13:52;;;;;;;9.90;4.97;;;17.50;98.10;;;;;;10414127;28;20222;-79
2023/10/09 23:19:31;;;;;;;8.90;4.47;;;17.40;98.00;;;;;;10407257;28;20210;-79
2023/10/09 23:25:08;;;;;;;16.30;6.10;;;17.40;98.00;;;;;;10411342;28;20290;-79
2023/10/09 23:30:36;;;;;;;9.70;4.47;;;17.40;98.40;;;;;;10409091;28;20199;-79
2023/10/09 23:36:04;;;;;;;8.97;5.40;;;17.30;98.30;;;;;;10409986;28;20254;-79
2023/10/09 23:41:26;;;;;;;14.37;5.73;;;17.30;98.40;;;;;;10408538;28;20782;-79
2023/10/09 23:46:50;;;;;;;12.50;4.50;;;17.30;98.40;;;;;;10411995;28;20229;-79
2023/10/09 23:52:13;;;;;;;11.13;4.43;;;17.20;98.20;;;;;;10411012;28;20628;-79
2023/10/09 23:57:42;;;;;;;9.63;4.73;;;17.20;98.80;;;;;;10418613;28;20197;-79
